Time,TemperatureF,DewpointF,PressureIn,WindDirection,WindDirectionDegrees,WindSpeedMPH,WindSpeedGustMPH,Humidity,HourlyPrecipIn,Conditions,Clouds,dailyrainin,SoftwareType,DateUTC
2013-02-06 04:45:00,24.0,24.0,30.16,WNW,292,0.0,0.0,100,0.00,,,-99.99,Weather View 32 v60,2013-02-06 09:45:00,
2013-02-06 06:10:00,23.0,23.0,30.19,West,270,0.0,0.0,100,0.00,,,-99.99,Weather View 32 v60,2013-02-06 11:10:00,
2013-02-06 06:40:00,25.0,25.0,30.22,West,270,0.0,0.0,100,0.00,,,-99.99,Weather View 32 v60,2013-02-06 11:40:00,
2013-02-06 06:50:00,25.0,25.0,30.23,West,270,0.0,0.0,100,0.00,,,-99.99,Weather View 32 v60,2013-02-06 11:50:00,
2013-02-06 06:55:00,25.0,25.0,30.23,WSW,247,0.0,0.0,100,0.00,,,-99.99,Weather View 32 v60,2013-02-06 11:55:00,
2013-02-06 07:05:00,26.0,25.8,30.24,WSW,247,0.0,0.0,99,0.00,,,-99.99,Weather View 32 v60,2013-02-06 12:05:00,
2013-02-06 07:10:00,27.0,25.2,30.24,West,270,0.0,0.0,93,0.00,,,-99.99,Weather View 32 v60,2013-02-06 12:10:00,
2013-02-06 08:00:00,31.0,24.3,30.23,West,270,1.0,6.0,76,0.00,,,-99.99,Weather View 32 v60,2013-02-06 13:00:00,
2013-02-06 08:05:00,31.0,26.1,30.23,SW,225,0.0,6.0,82,0.00,,,-99.99,Weather View 32 v60,2013-02-06 13:05:00,
2013-02-06 09:55:00,36.0,26.5,30.25,North,360,1.0,3.0,68,0.00,,,-99.99,Weather View 32 v60,2013-02-06 14:55:00,
2013-02-06 10:05:00,37.0,26.7,30.25,West,270,4.0,9.0,66,0.00,,,-99.99,Weather View 32 v60,2013-02-06 15:05:00,
2013-02-06 10:25:00,35.0,24.8,30.25,WNW,292,0.0,10.0,66,0.00,,,-99.99,Weather View 32 v60,2013-02-06 15:25:00,
2013-02-06 11:20:00,34.0,24.2,30.27,WSW,247,0.0,4.0,67,0.00,,,-99.99,Weather View 32 v60,2013-02-06 16:20:00,
2013-02-06 12:40:00,35.0,23.3,30.27,WSW,247,0.0,7.0,62,0.00,,,-99.99,Weather View 32 v60,2013-02-06 17:40:00,
2013-02-06 12:50:00,35.0,22.1,30.28,NW,315,1.0,7.0,59,0.00,,,-99.99,Weather View 32 v60,2013-02-06 17:50:00,
2013-02-06 12:55:00,36.0,24.2,30.29,SW,225,0.0,7.0,62,0.00,,,-99.99,Weather View 32 v60,2013-02-06 17:55:00,
2013-02-06 13:00:00,37.0,23.6,30.28,SW,225,0.0,7.0,58,0.00,,,-99.99,Weather View 32 v60,2013-02-06 18:00:00,
2013-02-06 13:05:00,37.0,23.2,30.28,North,360,4.0,7.0,57,0.00,,,-99.99,Weather View 32 v60,2013-02-06 18:05:00,
2013-02-06 13:10:00,38.0,23.7,30.27,West,270,1.0,10.0,56,0.00,,,-99.99,Weather View 32 v60,2013-02-06 18:10:00,
2013-02-06 13:15:00,40.0,23.8,30.27,West,270,5.0,10.0,52,0.00,,,-99.99,Weather View 32 v60,2013-02-06 18:15:00,
2013-02-06 13:30:00,37.0,21.9,30.26,WNW,292,3.0,10.0,54,0.00,,,-99.99,Weather View 32 v60,2013-02-06 18:30:00,
2013-02-06 13:35:00,37.0,22.7,30.27,WSW,247,7.0,10.0,56,0.00,,,-99.99,Weather View 32 v60,2013-02-06 18:35:00,
2013-02-06 13:40:00,36.0,21.8,30.27,SW,225,0.0,10.0,56,0.00,,,-99.99,Weather View 32 v60,2013-02-06 18:40:00,
2013-02-06 13:45:00,35.0,21.7,30.27,NW,315,0.0,10.0,58,0.00,,,-99.99,Weather View 32 v60,2013-02-06 18:45:00,
2013-02-06 13:50:00,35.0,22.5,30.27,WSW,247,5.0,10.0,60,0.00,,,-99.99,Weather View 32 v60,2013-02-06 18:50:00,
2013-02-06 13:55:00,36.0,21.0,30.29,WSW,247,4.0,10.0,54,0.00,,,-99.99,Weather View 32 v60,2013-02-06 18:55:00,
2013-02-06 14:00:00,37.0,20.5,30.29,WNW,292,7.0,10.0,51,0.00,,,-99.99,Weather View 32 v60,2013-02-06 19:00:00,
2013-02-06 14:05:00,38.0,22.8,30.29,SW,225,3.0,10.0,54,0.00,,,-99.99,Weather View 32 v60,2013-02-06 19:05:00,
2013-02-06 14:10:00,38.0,22.8,30.29,SW,225,0.0,10.0,54,0.00,,,-99.99,Weather View 32 v60,2013-02-06 19:10:00,
2013-02-06 14:15:00,38.0,21.9,30.29,WSW,247,3.0,10.0,52,0.00,,,-99.99,Weather View 32 v60,2013-02-06 19:15:00,
2013-02-06 14:20:00,38.0,22.4,30.29,West,270,2.0,10.0,53,0.00,,,-99.99,Weather View 32 v60,2013-02-06 19:20:00,
2013-02-06 14:25:00,36.0,19.6,30.29,WNW,292,5.0,10.0,51,0.00,,,-99.99,Weather View 32 v60,2013-02-06 19:25:00,
2013-02-06 14:30:00,37.0,21.4,30.29,West,270,5.0,10.0,53,0.00,,,-99.99,Weather View 32 v60,2013-02-06 19:30:00,
2013-02-06 14:35:00,37.0,21.4,30.29,SW,225,5.0,10.0,53,0.00,,,-99.99,Weather View 32 v60,2013-02-06 19:35:00,
2013-02-06 14:40:00,37.0,21.0,30.30,West,270,2.0,11.0,52,0.00,,,-99.99,Weather View 32 v60,2013-02-06 19:40:00,
2013-02-06 14:45:00,36.0,21.4,30.30,WSW,247,3.0,11.0,55,0.00,,,-99.99,Weather View 32 v60,2013-02-06 19:45:00,
2013-02-06 14:50:00,36.0,21.8,30.30,WNW,292,2.0,11.0,56,0.00,,,-99.99,Weather View 32 v60,2013-02-06 19:50:00,
2013-02-06 14:55:00,36.0,22.2,30.31,WNW,292,2.0,11.0,57,0.00,,,-99.99,Weather View 32 v60,2013-02-06 19:55:00,
2013-02-06 15:00:00,36.0,22.2,30.31,West,270,2.0,11.0,57,0.00,,,-99.99,Weather View 32 v60,2013-02-06 20:00:00,
2013-02-06 15:05:00,35.0,22.1,30.31,WSW,247,4.0,11.0,59,0.03,,,-99.99,Weather View 32 v60,2013-02-06 20:05:00,
2013-02-06 15:10:00,36.0,23.0,30.32,West,270,6.0,11.0,59,0.03,,,-99.99,Weather View 32 v60,2013-02-06 20:10:00,
2013-02-06 15:15:00,35.0,20.9,30.32,WNW,292,0.0,11.0,56,0.03,,,-99.99,Weather View 32 v60,2013-02-06 20:15:00,
2013-02-06 15:20:00,35.0,22.5,30.32,West,270,7.0,11.0,60,0.03,,,-99.99,Weather View 32 v60,2013-02-06 20:20:00,
2013-02-06 15:25:00,35.0,21.7,30.33,West,270,4.0,11.0,58,0.03,,,-99.99,Weather View 32 v60,2013-02-06 20:25:00,
2013-02-06 15:30:00,35.0,22.5,30.33,SW,225,2.0,11.0,60,0.03,,,-99.99,Weather View 32 v60,2013-02-06 20:30:00,
2013-02-06 15:35:00,34.0,21.6,30.33,WSW,247,0.0,11.0,60,0.03,,,-99.99,Weather View 32 v60,2013-02-06 20:35:00,
2013-02-06 15:40:00,34.0,22.3,30.34,WNW,292,0.0,9.0,62,0.03,,,-99.99,Weather View 32 v60,2013-02-06 20:40:00,
2013-02-06 15:45:00,33.0,21.8,30.34,West,270,0.0,9.0,63,0.03,,,-99.99,Weather View 32 v60,2013-02-06 20:45:00,
2013-02-06 15:50:00,33.0,21.8,30.35,WSW,247,0.0,9.0,63,0.03,,,-99.99,Weather View 32 v60,2013-02-06 20:50:00,
2013-02-06 15:55:00,33.0,22.5,30.35,West,270,0.0,9.0,65,0.03,,,-99.99,Weather View 32 v60,2013-02-06 20:55:00,
2013-02-06 16:00:00,33.0,22.1,30.35,West,270,0.0,8.0,64,0.03,,,-99.99,Weather View 32 v60,2013-02-06 21:00:00,
2013-02-06 16:05:00,32.0,21.6,30.35,West,270,0.0,8.0,65,0.00,,,-99.99,Weather View 32 v60,2013-02-06 21:05:00,
2013-02-06 16:10:00,33.0,21.4,30.35,West,270,3.0,8.0,62,0.00,,,-99.99,Weather View 32 v60,2013-02-06 21:10:00,
2013-02-06 16:15:00,32.0,21.9,30.35,West,270,3.0,8.0,66,0.00,,,-99.99,Weather View 32 v60,2013-02-06 21:15:00,
2013-02-06 16:20:00,32.0,21.9,30.36,WSW,247,5.0,8.0,66,0.00,,,-99.99,Weather View 32 v60,2013-02-06 21:20:00,
2013-02-06 16:25:00,32.0,22.3,30.36,WSW,247,0.0,8.0,67,0.00,,,-99.99,Weather View 32 v60,2013-02-06 21:25:00,
2013-02-06 16:30:00,31.0,21.7,30.37,West,270,0.0,7.0,68,0.00,,,-99.99,Weather View 32 v60,2013-02-06 21:30:00,
2013-02-06 16:35:00,31.0,21.3,30.37,West,270,1.0,7.0,67,0.00,,,-99.99,Weather View 32 v60,2013-02-06 21:35:00,
2013-02-06 16:45:00,30.0,21.1,30.38,WSW,247,0.0,7.0,69,0.00,,,-99.99,Weather View 32 v60,2013-02-06 21:45:00,
2013-02-06 17:00:00,29.0,21.1,30.39,SW,225,0.0,7.0,72,0.00,,,-99.99,Weather View 32 v60,2013-02-06 22:00:00,
2013-02-06 17:05:00,29.0,20.8,30.39,SW,225,0.0,7.0,71,0.00,,,-99.99,Weather View 32 v60,2013-02-06 22:05:00,
2013-02-06 17:15:00,29.0,21.4,30.39,WSW,247,0.0,7.0,73,0.00,,,-99.99,Weather View 32 v60,2013-02-06 22:15:00,
2013-02-06 17:20:00,29.0,21.4,30.40,WNW,292,0.0,7.0,73,0.00,,,-99.99,Weather View 32 v60,2013-02-06 22:20:00,
2013-02-06 17:25:00,29.0,21.4,30.40,West,270,0.0,6.0,73,0.00,,,-99.99,Weather View 32 v60,2013-02-06 22:25:00,
2013-02-06 17:35:00,29.0,21.1,30.41,SW,225,0.0,6.0,72,0.00,,,-99.99,Weather View 32 v60,2013-02-06 22:35:00,
2013-02-06 17:40:00,31.0,22.4,30.38,West,270,0.0,7.0,70,0.00,,,-99.99,Weather View 32 v60,2013-02-06 22:40:00,
2013-02-06 17:45:00,29.0,21.1,30.41,SW,225,0.0,6.0,72,0.00,,,-99.99,Weather View 32 v60,2013-02-06 22:45:00,
2013-02-06 17:50:00,30.0,22.1,30.39,WSW,247,0.0,7.0,72,0.00,,,-99.99,Weather View 32 v60,2013-02-06 22:50:00,
2013-02-06 18:05:00,28.0,20.5,30.41,WNW,292,0.0,6.0,73,0.00,,,-99.99,Weather View 32 v60,2013-02-06 23:05:00,
2013-02-06 18:10:00,29.0,21.1,30.39,SW,225,0.0,7.0,72,0.00,,,-99.99,Weather View 32 v60,2013-02-06 23:10:00,
2013-02-06 18:30:00,29.0,21.4,30.41,West,270,0.0,6.0,73,0.00,,,-99.99,Weather View 32 v60,2013-02-06 23:30:00,
2013-02-06 18:55:00,29.0,21.1,30.41,West,270,2.0,6.0,72,0.00,,,-99.99,Weather View 32 v60,2013-02-06 23:55:00,
2013-02-06 19:10:00,28.0,20.5,30.42,West,270,0.0,6.0,73,0.00,,,-99.99,Weather View 32 v60,2013-02-07 00:10:00,
2013-02-06 19:15:00,28.0,20.5,30.42,WSW,247,0.0,6.0,73,0.00,,,-99.99,Weather View 32 v60,2013-02-07 00:15:00,
2013-02-06 19:20:00,28.0,20.1,30.43,SW,225,0.0,6.0,72,0.00,,,-99.99,Weather View 32 v60,2013-02-07 00:20:00,
2013-02-06 19:30:00,28.0,19.5,30.43,WNW,292,0.0,5.0,70,0.00,,,-99.99,Weather View 32 v60,2013-02-07 00:30:00,
2013-02-06 19:35:00,28.0,18.5,30.43,WNW,292,0.0,5.0,67,0.00,,,-99.99,Weather View 32 v60,2013-02-07 00:35:00,
2013-02-06 19:40:00,28.0,19.5,30.43,West,270,0.0,5.0,70,0.00,,,-99.99,Weather View 32 v60,2013-02-07 00:40:00,
2013-02-06 19:50:00,28.0,21.4,30.44,West,270,0.0,5.0,76,0.00,,,-99.99,Weather View 32 v60,2013-02-07 00:50:00,
2013-02-06 19:55:00,27.0,20.1,30.44,West,270,0.0,3.0,75,0.00,,,-99.99,Weather View 32 v60,2013-02-07 00:55:00,
2013-02-06 20:00:00,27.0,19.8,30.45,West,270,0.0,3.0,74,0.00,,,-99.99,Weather View 32 v60,2013-02-07 01:00:00,
2013-02-06 20:05:00,26.0,19.5,30.45,West,270,0.0,3.0,76,0.00,,,-99.99,Weather View 32 v60,2013-02-07 01:05:00,
2013-02-06 20:10:00,26.0,18.9,30.45,West,270,0.0,3.0,74,0.00,,,-99.99,Weather View 32 v60,2013-02-07 01:10:00,
2013-02-06 20:20:00,26.0,18.9,30.45,West,270,0.0,2.0,74,0.00,,,-99.99,Weather View 32 v60,2013-02-07 01:20:00,
2013-02-06 20:25:00,26.0,18.2,30.45,WNW,292,0.0,2.0,72,0.00,,,-99.99,Weather View 32 v60,2013-02-07 01:25:00,
2013-02-06 20:35:00,26.0,18.9,30.45,NNE,22,0.0,0.0,74,0.00,,,-99.99,Weather View 32 v60,2013-02-07 01:35:00,
2013-02-06 20:45:00,26.0,17.6,30.46,WSW,247,0.0,3.0,70,0.00,,,-99.99,Weather View 32 v60,2013-02-07 01:45:00,
2013-02-06 20:50:00,26.0,16.9,30.46,WNW,292,0.0,3.0,68,0.00,,,-99.99,Weather View 32 v60,2013-02-07 01:50:00,
2013-02-06 20:55:00,26.0,15.5,30.46,WNW,292,0.0,3.0,64,0.00,,,-99.99,Weather View 32 v60,2013-02-07 01:55:00,
2013-02-06 21:05:00,26.0,17.6,30.46,NW,315,0.0,3.0,70,0.00,,,-99.99,Weather View 32 v60,2013-02-07 02:05:00,
2013-02-06 21:10:00,25.0,16.9,30.47,NW,315,0.0,3.0,71,0.00,,,-99.99,Weather View 32 v60,2013-02-07 02:10:00,
2013-02-06 21:20:00,25.0,16.9,30.47,NE,45,0.0,3.0,71,0.00,,,-99.99,Weather View 32 v60,2013-02-07 02:20:00,
2013-02-06 21:30:00,25.0,15.2,30.47,NW,315,0.0,3.0,66,0.00,,,-99.99,Weather View 32 v60,2013-02-07 02:30:00,
2013-02-06 21:40:00,25.0,16.3,30.48,SW,225,0.0,3.0,69,0.00,,,-99.99,Weather View 32 v60,2013-02-07 02:40:00,
2013-02-06 21:45:00,25.0,16.9,30.48,SW,225,0.0,3.0,71,0.00,,,-99.99,Weather View 32 v60,2013-02-07 02:45:00,
2013-02-06 21:55:00,25.0,15.9,30.48,SW,225,0.0,3.0,68,0.00,,,-99.99,Weather View 32 v60,2013-02-07 02:55:00,
2013-02-06 22:00:00,25.0,15.9,30.49,SW,225,0.0,3.0,68,0.00,,,-99.99,Weather View 32 v60,2013-02-07 03:00:00,
2013-02-06 22:05:00,24.0,15.0,30.49,SW,225,0.0,3.0,68,0.00,,,-99.99,Weather View 32 v60,2013-02-07 03:05:00,
2013-02-06 22:12:00,24.0,15.3,30.49,SW,225,0.0,3.0,69,0.00,,,-99.99,Weather View 32 v60,2013-02-07 03:12:00,
2013-02-06 22:20:00,24.0,15.0,30.50,SW,225,0.0,3.0,68,0.00,,,-99.99,Weather View 32 v60,2013-02-07 03:20:00,
2013-02-06 22:25:00,24.0,15.0,30.50,SW,225,0.0,3.0,68,0.00,,,-99.99,Weather View 32 v60,2013-02-07 03:25:00,
2013-02-06 22:45:00,25.0,16.9,30.51,SW,225,0.0,0.0,71,0.00,,,-99.99,Weather View 32 v60,2013-02-07 03:45:00,
2013-02-06 23:25:00,23.0,14.3,30.51,NW,315,0.0,0.0,69,0.00,,,-99.99,Weather View 32 v60,2013-02-07 04:25:00,
2013-02-06 23:30:00,23.0,14.7,30.51,NW,315,0.0,0.0,70,0.00,,,-99.99,Weather View 32 v60,2013-02-07 04:30:00,